sensor_id;sensor_type;location;lat;lon;timestamp;pressure;altitude;pressure_sealevel;temperature;humidity
62420;BME280;48460;51.616;5.426;2023-04-07T04:00:24;101355.09;;;6.89;100.00
62420;BME280;48460;51.616;5.426;2023-04-07T04:20:36;101357.03;;;6.82;100.00
62420;BME280;48460;51.616;5.426;2023-04-07T04:23:06;101356.38;;;6.74;100.00
62420;BME280;48460;51.616;5.426;2023-04-07T04:25:35;101349.63;;;6.67;100.00
62420;BME280;48460;51.616;5.426;2023-04-07T04:28:05;101356.59;;;6.67;100.00
62420;BME280;48460;51.616;5.426;2023-04-07T04:30:31;101354.34;;;6.54;100.00
62420;BME280;48460;51.616;5.426;2023-04-07T04:32:56;101359.59;;;6.53;100.00
62420;BME280;48460;51.616;5.426;2023-04-07T04:35:25;101360.56;;;6.49;100.00
62420;BME280;48460;51.616;5.426;2023-04-07T04:37:51;101354.56;;;6.45;100.00
62420;BME280;48460;51.616;5.426;2023-04-07T05:04:29;101391.34;;;6.37;100.00
62420;BME280;48460;51.616;5.426;2023-04-07T08:09:56;101535.47;;;8.14;100.00
62420;BME280;48460;51.616;5.426;2023-04-07T09:47:31;101594.00;;;9.74;100.00
62420;BME280;48460;51.616;5.426;2023-04-07T09:49:57;101590.78;;;9.66;100.00
62420;BME280;48460;51.616;5.426;2023-04-07T10:37:37;101640.56;;;9.69;100.00
62420;BME280;48460;51.616;5.426;2023-04-07T11:07:44;101656.19;;;9.73;100.00
62420;BME280;48460;51.616;5.426;2023-04-07T11:20:56;101642.13;;;9.99;100.00
62420;BME280;48460;51.616;5.426;2023-04-07T11:30:46;101656.09;;;10.00;100.00
62420;BME280;48460;51.616;5.426;2023-04-07T11:39:56;101651.13;;;10.16;100.00
62420;BME280;48460;51.616;5.426;2023-04-07T11:49:44;101658.66;;;10.26;100.00
62420;BME280;48460;51.616;5.426;2023-04-07T11:52:11;101652.91;;;10.15;100.00
62420;BME280;48460;51.616;5.426;2023-04-07T11:54:45;101654.69;;;10.15;100.00
62420;BME280;48460;51.616;5.426;2023-04-07T11:57:14;101662.47;;;10.18;100.00
62420;BME280;48460;51.616;5.426;2023-04-07T11:59:47;101651.81;;;10.21;100.00
62420;BME280;48460;51.616;5.426;2023-04-07T12:02:30;101659.97;;;10.38;100.00
62420;BME280;48460;51.616;5.426;2023-04-07T12:04:56;101661.31;;;10.48;100.00
62420;BME280;48460;51.616;5.426;2023-04-07T12:07:22;101659.25;;;10.57;100.00
62420;BME280;48460;51.616;5.426;2023-04-07T12:09:50;101671.44;;;10.59;100.00
62420;BME280;48460;51.616;5.426;2023-04-07T12:12:24;101676.28;;;10.46;100.00
62420;BME280;48460;51.616;5.426;2023-04-07T12:14:51;101668.59;;;10.42;100.00
62420;BME280;48460;51.616;5.426;2023-04-07T12:17:24;101674.94;;;10.36;100.00
62420;BME280;48460;51.616;5.426;2023-04-07T12:19:56;101679.50;;;10.31;100.00
62420;BME280;48460;51.616;5.426;2023-04-07T12:22:24;101678.88;;;10.23;100.00
62420;BME280;48460;51.616;5.426;2023-04-07T12:24:52;101683.47;;;10.18;100.00
62420;BME280;48460;51.616;5.426;2023-04-07T12:27:17;101673.94;;;10.15;100.00
62420;BME280;48460;51.616;5.426;2023-04-07T12:29:44;101684.56;;;10.12;100.00
62420;BME280;48460;51.616;5.426;2023-04-07T12:32:13;101692.09;;;10.21;100.00
62420;BME280;48460;51.616;5.426;2023-04-07T12:34:39;101688.66;;;10.19;100.00
62420;BME280;48460;51.616;5.426;2023-04-07T12:37:08;101698.66;;;10.10;100.00
62420;BME280;48460;51.616;5.426;2023-04-07T12:39:33;101700.38;;;10.11;100.00
62420;BME280;48460;51.616;5.426;2023-04-07T12:41:59;101688.91;;;10.13;100.00
62420;BME280;48460;51.616;5.426;2023-04-07T12:44:25;101697.25;;;10.24;100.00
62420;BME280;48460;51.616;5.426;2023-04-07T12:46:53;101698.94;;;10.25;100.00
62420;BME280;48460;51.616;5.426;2023-04-07T12:49:20;101698.09;;;10.26;100.00
62420;BME280;48460;51.616;5.426;2023-04-07T12:51:53;101706.41;;;10.38;100.00
62420;BME280;48460;51.616;5.426;2023-04-07T12:54:41;101695.59;;;10.47;100.00
62420;BME280;48460;51.616;5.426;2023-04-07T12:57:10;101712.88;;;10.53;100.00
62420;BME280;48460;51.616;5.426;2023-04-07T12:59:49;101710.19;;;10.54;100.00
62420;BME280;48460;51.616;5.426;2023-04-07T13:02:20;101699.59;;;10.56;100.00
62420;BME280;48460;51.616;5.426;2023-04-07T13:04:52;101702.53;;;10.48;100.00
62420;BME280;48460;51.616;5.426;2023-04-07T13:07:20;101705.53;;;10.39;100.00
62420;BME280;48460;51.616;5.426;2023-04-07T13:09:50;101717.59;;;10.44;100.00
62420;BME280;48460;51.616;5.426;2023-04-07T13:12:27;101705.69;;;10.34;100.00
62420;BME280;48460;51.616;5.426;2023-04-07T13:14:52;101720.94;;;10.23;100.00
62420;BME280;48460;51.616;5.426;2023-04-07T13:17:21;101720.41;;;10.15;100.00
62420;BME280;48460;51.616;5.426;2023-04-07T13:23:09;101733.06;;;10.03;100.00
62420;BME280;48460;51.616;5.426;2023-04-07T13:25:40;101734.44;;;9.89;100.00
62420;BME280;48460;51.616;5.426;2023-04-07T13:28:06;101721.56;;;9.81;100.00
62420;BME280;48460;51.616;5.426;2023-04-07T13:30:32;101732.97;;;9.81;100.00
62420;BME280;48460;51.616;5.426;2023-04-07T13:33:00;101728.88;;;9.73;100.00
62420;BME280;48460;51.616;5.426;2023-04-07T13:35:26;101732.38;;;9.72;100.00
62420;BME280;48460;51.616;5.426;2023-04-07T13:37:55;101731.31;;;9.77;100.00
62420;BME280;48460;51.616;5.426;2023-04-07T13:40:20;101727.31;;;9.67;100.00
62420;BME280;48460;51.616;5.426;2023-04-07T13:42:46;101740.13;;;9.76;100.00
62420;BME280;48460;51.616;5.426;2023-04-07T13:45:23;101732.97;;;9.81;100.00
62420;BME280;48460;51.616;5.426;2023-04-07T13:47:49;101729.31;;;9.86;100.00
62420;BME280;48460;51.616;5.426;2023-04-07T13:50:15;101732.75;;;9.88;100.00
62420;BME280;48460;51.616;5.426;2023-04-07T13:52:40;101732.56;;;9.92;100.00
62420;BME280;48460;51.616;5.426;2023-04-07T13:55:32;101742.25;;;9.90;100.00
62420;BME280;48460;51.616;5.426;2023-04-07T13:57:58;101737.31;;;9.81;100.00
62420;BME280;48460;51.616;5.426;2023-04-07T14:00:25;101738.66;;;9.68;100.00
62420;BME280;48460;51.616;5.426;2023-04-07T14:02:51;101738.88;;;9.62;100.00
62420;BME280;48460;51.616;5.426;2023-04-07T14:05:26;101728.47;;;9.58;100.00
62420;BME280;48460;51.616;5.426;2023-04-07T14:07:51;101726.59;;;9.62;100.00
62420;BME280;48460;51.616;5.426;2023-04-07T14:10:18;101728.06;;;9.71;100.00
62420;BME280;48460;51.616;5.426;2023-04-07T14:12:46;101740.06;;;9.78;100.00
62420;BME280;48460;51.616;5.426;2023-04-07T14:19:10;101738.19;;;10.07;100.00
62420;BME280;48460;51.616;5.426;2023-04-07T14:22:02;101740.34;;;10.20;100.00
62420;BME280;48460;51.616;5.426;2023-04-07T14:31:41;101729.81;;;10.45;100.00
62420;BME280;48460;51.616;5.426;2023-04-07T14:35:06;101748.44;;;10.39;100.00
62420;BME280;48460;51.616;5.426;2023-04-07T14:38:01;101749.81;;;10.24;100.00
62420;BME280;48460;51.616;5.426;2023-04-07T14:40:31;101736.59;;;10.02;100.00
62420;BME280;48460;51.616;5.426;2023-04-07T14:43:01;101740.44;;;9.92;100.00
62420;BME280;48460;51.616;5.426;2023-04-07T14:48:32;101744.53;;;9.76;100.00
62420;BME280;48460;51.616;5.426;2023-04-07T14:50:58;101753.25;;;9.76;100.00
62420;BME280;48460;51.616;5.426;2023-04-07T14:53:25;101746.38;;;9.72;100.00
62420;BME280;48460;51.616;5.426;2023-04-07T15:15:32;101773.53;;;10.23;100.00
62420;BME280;48460;51.616;5.426;2023-04-07T15:18:00;101759.94;;;10.12;100.00
62420;BME280;48460;51.616;5.426;2023-04-07T15:20:26;101771.50;;;10.06;100.00
62420;BME280;48460;51.616;5.426;2023-04-07T15:23:07;101769.13;;;9.98;100.00
62420;BME280;48460;51.616;5.426;2023-04-07T15:29:15;101767.69;;;9.90;100.00
62420;BME280;48460;51.616;5.426;2023-04-07T15:35:04;101770.09;;;9.71;100.00
62420;BME280;48460;51.616;5.426;2023-04-07T15:37:34;101764.22;;;9.63;100.00
62420;BME280;48460;51.616;5.426;2023-04-07T15:40:00;101765.34;;;9.55;100.00
62420;BME280;48460;51.616;5.426;2023-04-07T15:42:26;101760.22;;;9.51;100.00
62420;BME280;48460;51.616;5.426;2023-04-07T15:44:53;101764.72;;;9.47;100.00
62420;BME280;48460;51.616;5.426;2023-04-07T15:47:19;101769.94;;;9.49;100.00
62420;BME280;48460;51.616;5.426;2023-04-07T15:49:48;101764.94;;;9.41;100.00
62420;BME280;48460;51.616;5.426;2023-04-07T16:12:48;101795.56;;;9.41;100.00
62420;BME280;48460;51.616;5.426;2023-04-07T16:15:22;101787.59;;;9.44;100.00
62420;BME280;48460;51.616;5.426;2023-04-07T16:17:48;101786.22;;;9.32;100.00
62420;BME280;48460;51.616;5.426;2023-04-07T16:20:14;101791.56;;;9.29;100.00
62420;BME280;48460;51.616;5.426;2023-04-07T16:22:49;101785.50;;;9.27;100.00
62420;BME280;48460;51.616;5.426;2023-04-07T16:25:15;101778.66;;;9.23;100.00
62420;BME280;48460;51.616;5.426;2023-04-07T16:27:46;101797.03;;;9.21;100.00
62420;BME280;48460;51.616;5.426;2023-04-07T16:33:35;101788.59;;;9.11;100.00
62420;BME280;48460;51.616;5.426;2023-04-07T16:36:00;101792.91;;;9.14;100.00
62420;BME280;48460;51.616;5.426;2023-04-07T16:38:28;101804.03;;;9.22;100.00
62420;BME280;48460;51.616;5.426;2023-04-07T16:40:56;101793.66;;;9.18;100.00
62420;BME280;48460;51.616;5.426;2023-04-07T16:43:22;101803.25;;;9.19;100.00
62420;BME280;48460;51.616;5.426;2023-04-07T16:46:22;101811.66;;;9.30;100.00
62420;BME280;48460;51.616;5.426;2023-04-07T16:48:51;101810.91;;;9.26;100.00
62420;BME280;48460;51.616;5.426;2023-04-07T16:51:17;101816.09;;;9.28;100.00
62420;BME280;48460;51.616;5.426;2023-04-07T16:53:44;101815.38;;;9.23;100.00
62420;BME280;48460;51.616;5.426;2023-04-07T16:56:47;101817.06;;;9.25;100.00
62420;BME280;48460;51.616;5.426;2023-04-07T16:59:12;101819.78;;;9.22;100.00
62420;BME280;48460;51.616;5.426;2023-04-07T17:01:38;101812.00;;;9.19;100.00
62420;BME280;48460;51.616;5.426;2023-04-07T17:04:04;101817.16;;;9.22;100.00
62420;BME280;48460;51.616;5.426;2023-04-07T17:06:30;101816.25;;;9.23;100.00
62420;BME280;48460;51.616;5.426;2023-04-07T17:08:58;101820.66;;;9.21;100.00
62420;BME280;48460;51.616;5.426;2023-04-07T17:11:26;101829.47;;;9.20;100.00
62420;BME280;48460;51.616;5.426;2023-04-07T17:13:51;101827.66;;;9.22;100.00
62420;BME280;48460;51.616;5.426;2023-04-07T17:16:29;101828.69;;;9.17;100.00
62420;BME280;48460;51.616;5.426;2023-04-07T17:22:21;101844.16;;;9.26;100.00
62420;BME280;48460;51.616;5.426;2023-04-07T17:24:47;101830.50;;;9.15;100.00
62420;BME280;48460;51.616;5.426;2023-04-07T17:30:26;101849.88;;;9.10;100.00
62420;BME280;48460;51.616;5.426;2023-04-07T17:32:51;101853.47;;;9.06;100.00
62420;BME280;48460;51.616;5.426;2023-04-07T17:35:19;101863.28;;;9.01;100.00
62420;BME280;48460;51.616;5.426;2023-04-07T17:37:55;101858.88;;;9.02;100.00
62420;BME280;48460;51.616;5.426;2023-04-07T17:44:11;101873.81;;;8.98;100.00
62420;BME280;48460;51.616;5.426;2023-04-07T17:46:39;101879.25;;;8.92;100.00
62420;BME280;48460;51.616;5.426;2023-04-07T17:49:10;101869.81;;;8.86;100.00
62420;BME280;48460;51.616;5.426;2023-04-07T17:55:01;101890.06;;;8.81;100.00
62420;BME280;48460;51.616;5.426;2023-04-07T17:58:04;101894.44;;;8.81;100.00
62420;BME280;48460;51.616;5.426;2023-04-07T18:00:31;101896.34;;;8.74;100.00
62420;BME280;48460;51.616;5.426;2023-04-07T18:03:10;101895.50;;;8.74;100.00
62420;BME280;48460;51.616;5.426;2023-04-07T18:05:44;101892.94;;;8.72;100.00
62420;BME280;48460;51.616;5.426;2023-04-07T18:08:10;101897.19;;;8.76;100.00
62420;BME280;48460;51.616;5.426;2023-04-07T18:10:36;101899.88;;;8.75;100.00
62420;BME280;48460;51.616;5.426;2023-04-07T18:16:37;101906.16;;;8.67;100.00
62420;BME280;48460;51.616;5.426;2023-04-07T18:19:05;101904.41;;;8.68;100.00
62420;BME280;48460;51.616;5.426;2023-04-07T18:21:37;101912.19;;;8.71;100.00
62420;BME280;48460;51.616;5.426;2023-04-07T18:24:02;101913.19;;;8.67;100.00
62420;BME280;48460;51.616;5.426;2023-04-07T18:26:28;101917.47;;;8.70;100.00
62420;BME280;48460;51.616;5.426;2023-04-07T18:29:10;101913.25;;;8.64;100.00
62420;BME280;48460;51.616;5.426;2023-04-07T18:31:45;101927.28;;;8.63;100.00
62420;BME280;48460;51.616;5.426;2023-04-07T18:34:11;101920.28;;;8.62;100.00
62420;BME280;48460;51.616;5.426;2023-04-07T18:36:44;101916.03;;;8.58;100.00
62420;BME280;48460;51.616;5.426;2023-04-07T18:42:43;101938.56;;;8.65;100.00
62420;BME280;48460;51.616;5.426;2023-04-07T18:48:46;101943.25;;;8.54;100.00
62420;BME280;48460;51.616;5.426;2023-04-07T18:54:37;101947.66;;;8.52;100.00
62420;BME280;48460;51.616;5.426;2023-04-07T18:57:14;101956.47;;;8.49;100.00
62420;BME280;48460;51.616;5.426;2023-04-07T18:59:46;101955.69;;;8.46;100.00
62420;BME280;48460;51.616;5.426;2023-04-07T19:05:59;101969.56;;;8.51;100.00
62420;BME280;48460;51.616;5.426;2023-04-07T19:12:02;101968.72;;;8.49;100.00
62420;BME280;48460;51.616;5.426;2023-04-07T19:17:57;101971.44;;;8.44;100.00
62420;BME280;48460;51.616;5.426;2023-04-07T19:20:42;101973.28;;;8.40;100.00
62420;BME280;48460;51.616;5.426;2023-04-07T19:23:13;101970.56;;;8.45;100.00
62420;BME280;48460;51.616;5.426;2023-04-07T19:25:53;101966.28;;;8.41;100.00
62420;BME280;48460;51.616;5.426;2023-04-07T19:28:19;101967.31;;;8.34;100.00
62420;BME280;48460;51.616;5.426;2023-04-07T19:30:45;101969.06;;;8.33;100.00
62420;BME280;48460;51.616;5.426;2023-04-07T19:33:12;101974.25;;;8.36;100.00
62420;BME280;48460;51.616;5.426;2023-04-07T19:35:48;101973.44;;;8.33;100.00
62420;BME280;48460;51.616;5.426;2023-04-07T19:41:48;101992.38;;;8.46;100.00
62420;BME280;48460;51.616;5.426;2023-04-07T19:50:48;101984.75;;;8.35;100.00
62420;BME280;48460;51.616;5.426;2023-04-07T20:07:31;102008.22;;;8.41;100.00
62420;BME280;48460;51.616;5.426;2023-04-07T20:13:19;102016.06;;;8.42;100.00
62420;BME280;48460;51.616;5.426;2023-04-07T20:19:36;102013.56;;;8.36;100.00
62420;BME280;48460;51.616;5.426;2023-04-07T20:22:04;102008.47;;;8.30;100.00
62420;BME280;48460;51.616;5.426;2023-04-07T20:24:33;102011.94;;;8.31;100.00
62420;BME280;48460;51.616;5.426;2023-04-07T20:27:01;102004.16;;;8.28;100.00
62420;BME280;48460;51.616;5.426;2023-04-07T20:43:36;102044.19;;;8.33;100.00
62420;BME280;48460;51.616;5.426;2023-04-07T20:49:27;102045.03;;;8.35;100.00
62420;BME280;48460;51.616;5.426;2023-04-07T20:59:08;102054.81;;;8.27;100.00
62420;BME280;48460;51.616;5.426;2023-04-07T21:05:26;102050.59;;;8.21;100.00
62420;BME280;48460;51.616;5.426;2023-04-07T21:11:22;102049.84;;;8.16;100.00
62420;BME280;48460;51.616;5.426;2023-04-07T21:17:53;102041.34;;;8.06;100.00
62420;BME280;48460;51.616;5.426;2023-04-07T21:20:23;102050.03;;;8.07;100.00
62420;BME280;48460;51.616;5.426;2023-04-07T21:22:49;102050.13;;;8.02;100.00
62420;BME280;48460;51.616;5.426;2023-04-07T21:25:15;102053.53;;;8.07;100.00
62420;BME280;48460;51.616;5.426;2023-04-07T21:27:43;102054.44;;;8.06;100.00
62420;BME280;48460;51.616;5.426;2023-04-07T21:30:20;102049.34;;;7.98;100.00
62420;BME280;48460;51.616;5.426;2023-04-07T21:36:46;102058.84;;;8.03;100.00
62420;BME280;48460;51.616;5.426;2023-04-07T21:43:07;102058.06;;;7.99;100.00
62420;BME280;48460;51.616;5.426;2023-04-07T21:49:12;102058.13;;;7.96;100.00
62420;BME280;48460;51.616;5.426;2023-04-07T21:55:30;102054.78;;;7.89;100.00
62420;BME280;48460;51.616;5.426;2023-04-07T22:01:39;102053.88;;;7.90;100.00
62420;BME280;48460;51.616;5.426;2023-04-07T22:08:10;102058.25;;;7.91;100.00
62420;BME280;48460;51.616;5.426;2023-04-07T22:14:11;102058.41;;;7.84;100.00
62420;BME280;48460;51.616;5.426;2023-04-07T22:16:37;102058.38;;;7.85;100.00
62420;BME280;48460;51.616;5.426;2023-04-07T22:22:46;102061.00;;;7.84;100.00
62420;BME280;48460;51.616;5.426;2023-04-07T22:29:10;102067.97;;;7.85;100.00
62420;BME280;48460;51.616;5.426;2023-04-07T22:31:38;102068.88;;;7.84;100.00
62420;BME280;48460;51.616;5.426;2023-04-07T22:34:06;102070.69;;;7.80;100.00
62420;BME280;48460;51.616;5.426;2023-04-07T22:36:32;102072.47;;;7.78;100.00
62420;BME280;48460;51.616;5.426;2023-04-07T22:39:03;102072.47;;;7.78;100.00
62420;BME280;48460;51.616;5.426;2023-04-07T22:41:45;102066.47;;;7.73;100.00
62420;BME280;48460;51.616;5.426;2023-04-07T22:47:46;102078.75;;;7.69;100.00
62420;BME280;48460;51.616;5.426;2023-04-07T22:50:20;102070.13;;;7.64;100.00
62420;BME280;48460;51.616;5.426;2023-04-07T22:52:48;102080.59;;;7.64;100.00
62420;BME280;48460;51.616;5.426;2023-04-07T22:55:14;102071.13;;;7.59;100.00
62420;BME280;48460;51.616;5.426;2023-04-07T22:57:41;102069.44;;;7.56;100.00
62420;BME280;48460;51.616;5.426;2023-04-07T23:03:38;102073.09;;;7.46;100.00
62420;BME280;48460;51.616;5.426;2023-04-07T23:06:08;102067.13;;;7.41;100.00
62420;BME280;48460;51.616;5.426;2023-04-07T23:08:33;102067.06;;;7.44;100.00
62420;BME280;48460;51.616;5.426;2023-04-07T23:11:00;102071.50;;;7.39;100.00
62420;BME280;48460;51.616;5.426;2023-04-07T23:27:27;102092.50;;;7.34;100.00
62420;BME280;48460;51.616;5.426;2023-04-07T23:43:37;102084.28;;;7.07;100.00
62420;BME280;48460;51.616;5.426;2023-04-07T23:59:31;102111.00;;;7.26;100.00
